sensor_id;sensor_type;location;lat;lon;timestamp;temperature;humidity
13606;DHT22;6874;52.084;5.090;2023-11-21T00:00:16;7.90;99.90
13606;DHT22;6874;52.084;5.090;2023-11-21T00:02:43;7.90;99.90
13606;DHT22;6874;52.084;5.090;2023-11-21T00:05:09;7.90;99.90
13606;DHT22;6874;52.084;5.090;2023-11-21T00:07:38;7.90;99.90
13606;DHT22;6874;52.084;5.090;2023-11-21T00:10:04;7.80;99.90
13606;DHT22;6874;52.084;5.090;2023-11-21T00:12:31;7.80;99.90
13606;DHT22;6874;52.084;5.090;2023-11-21T00:14:57;7.80;99.90
13606;DHT22;6874;52.084;5.090;2023-11-21T00:17:23;7.80;99.90
13606;DHT22;6874;52.084;5.090;2023-11-21T00:19:48;7.80;99.90
13606;DHT22;6874;52.084;5.090;2023-11-21T00:22:14;7.80;99.90
13606;DHT22;6874;52.084;5.090;2023-11-21T00:24:41;7.70;99.90
13606;DHT22;6874;52.084;5.090;2023-11-21T00:27:06;7.70;99.90
13606;DHT22;6874;52.084;5.090;2023-11-21T00:29:32;7.70;99.90
13606;DHT22;6874;52.084;5.090;2023-11-21T00:31:58;7.70;99.90
13606;DHT22;6874;52.084;5.090;2023-11-21T00:34:23;7.70;99.90
13606;DHT22;6874;52.084;5.090;2023-11-21T00:36:49;7.70;99.90
13606;DHT22;6874;52.084;5.090;2023-11-21T00:39:14;7.70;99.90
13606;DHT22;6874;52.084;5.090;2023-11-21T00:41:41;7.70;99.90
13606;DHT22;6874;52.084;5.090;2023-11-21T00:44:07;7.60;99.90
13606;DHT22;6874;52.084;5.090;2023-11-21T00:46:32;7.60;99.90
13606;DHT22;6874;52.084;5.090;2023-11-21T00:48:58;7.60;99.90
13606;DHT22;6874;52.084;5.090;2023-11-21T00:51:24;7.60;99.90
13606;DHT22;6874;52.084;5.090;2023-11-21T00:53:50;7.60;99.90
13606;DHT22;6874;52.084;5.090;2023-11-21T00:56:15;7.60;99.90
13606;DHT22;6874;52.084;5.090;2023-11-21T00:58:41;7.60;99.90
13606;DHT22;6874;52.084;5.090;2023-11-21T01:01:09;7.50;99.90
13606;DHT22;6874;52.084;5.090;2023-11-21T01:03:34;7.50;99.90
13606;DHT22;6874;52.084;5.090;2023-11-21T01:06:00;7.50;99.90
13606;DHT22;6874;52.084;5.090;2023-11-21T01:08:25;7.50;99.90
13606;DHT22;6874;52.084;5.090;2023-11-21T01:10:51;7.50;99.90
13606;DHT22;6874;52.084;5.090;2023-11-21T01:13:17;7.50;99.90
13606;DHT22;6874;52.084;5.090;2023-11-21T01:15:42;7.50;99.90
13606;DHT22;6874;52.084;5.090;2023-11-21T01:18:08;7.50;99.90
13606;DHT22;6874;52.084;5.090;2023-11-21T01:20:36;7.50;99.90
13606;DHT22;6874;52.084;5.090;2023-11-21T01:23:01;7.50;99.90
13606;DHT22;6874;52.084;5.090;2023-11-21T01:25:27;7.50;99.90
13606;DHT22;6874;52.084;5.090;2023-11-21T01:27:53;7.50;99.90
13606;DHT22;6874;52.084;5.090;2023-11-21T01:30:18;7.50;99.90
13606;DHT22;6874;52.084;5.090;2023-11-21T01:32:44;7.40;99.90
13606;DHT22;6874;52.084;5.090;2023-11-21T01:35:10;7.40;99.90
13606;DHT22;6874;52.084;5.090;2023-11-21T01:37:39;7.40;99.90
13606;DHT22;6874;52.084;5.090;2023-11-21T01:40:05;7.40;99.90
13606;DHT22;6874;52.084;5.090;2023-11-21T01:42:35;7.40;99.90
13606;DHT22;6874;52.084;5.090;2023-11-21T01:45:01;7.40;99.90
13606;DHT22;6874;52.084;5.090;2023-11-21T01:47:28;7.40;99.90
13606;DHT22;6874;52.084;5.090;2023-11-21T01:49:55;7.40;99.90
13606;DHT22;6874;52.084;5.090;2023-11-21T01:52:21;7.40;99.90
13606;DHT22;6874;52.084;5.090;2023-11-21T01:54:46;7.40;99.90
13606;DHT22;6874;52.084;5.090;2023-11-21T01:57:13;7.40;99.90
13606;DHT22;6874;52.084;5.090;2023-11-21T01:59:41;7.40;99.90
13606;DHT22;6874;52.084;5.090;2023-11-21T02:02:08;7.40;99.90
13606;DHT22;6874;52.084;5.090;2023-11-21T02:04:35;7.50;99.90
13606;DHT22;6874;52.084;5.090;2023-11-21T02:07:01;7.40;99.90
13606;DHT22;6874;52.084;5.090;2023-11-21T02:09:28;7.40;99.90
13606;DHT22;6874;52.084;5.090;2023-11-21T02:11:55;7.40;99.90
13606;DHT22;6874;52.084;5.090;2023-11-21T02:14:21;7.50;99.90
13606;DHT22;6874;52.084;5.090;2023-11-21T02:16:50;7.50;99.90
13606;DHT22;6874;52.084;5.090;2023-11-21T02:19:21;7.50;99.90
13606;DHT22;6874;52.084;5.090;2023-11-21T02:21:56;7.50;99.90
13606;DHT22;6874;52.084;5.090;2023-11-21T02:24:23;7.50;99.90
13606;DHT22;6874;52.084;5.090;2023-11-21T02:26:50;7.50;99.90
13606;DHT22;6874;52.084;5.090;2023-11-21T02:29:21;7.50;99.90
13606;DHT22;6874;52.084;5.090;2023-11-21T02:31:54;7.50;99.90
13606;DHT22;6874;52.084;5.090;2023-11-21T02:34:21;7.50;99.90
13606;DHT22;6874;52.084;5.090;2023-11-21T02:36:47;7.50;99.90
13606;DHT22;6874;52.084;5.090;2023-11-21T02:39:15;7.50;99.90
13606;DHT22;6874;52.084;5.090;2023-11-21T02:41:40;7.70;99.90
13606;DHT22;6874;52.084;5.090;2023-11-21T02:44:06;7.50;99.90
13606;DHT22;6874;52.084;5.090;2023-11-21T02:46:36;7.50;99.90
13606;DHT22;6874;52.084;5.090;2023-11-21T02:49:02;7.50;99.90
13606;DHT22;6874;52.084;5.090;2023-11-21T02:51:28;7.60;99.90
13606;DHT22;6874;52.084;5.090;2023-11-21T02:53:54;7.60;99.90
13606;DHT22;6874;52.084;5.090;2023-11-21T02:56:24;7.60;99.90
13606;DHT22;6874;52.084;5.090;2023-11-21T02:58:49;7.60;99.90
13606;DHT22;6874;52.084;5.090;2023-11-21T03:01:15;7.60;99.90
13606;DHT22;6874;52.084;5.090;2023-11-21T03:03:40;7.60;99.90
13606;DHT22;6874;52.084;5.090;2023-11-21T03:06:07;7.60;99.90
13606;DHT22;6874;52.084;5.090;2023-11-21T03:08:32;7.60;99.90
13606;DHT22;6874;52.084;5.090;2023-11-21T03:10:58;7.60;99.90
13606;DHT22;6874;52.084;5.090;2023-11-21T03:13:24;7.60;99.90
13606;DHT22;6874;52.084;5.090;2023-11-21T03:15:49;7.70;99.90
13606;DHT22;6874;52.084;5.090;2023-11-21T03:18:15;7.60;99.90
13606;DHT22;6874;52.084;5.090;2023-11-21T03:20:40;7.70;99.90
13606;DHT22;6874;52.084;5.090;2023-11-21T03:23:06;7.60;99.90
13606;DHT22;6874;52.084;5.090;2023-11-21T03:25:32;7.70;99.90
13606;DHT22;6874;52.084;5.090;2023-11-21T03:27:58;7.70;99.90
13606;DHT22;6874;52.084;5.090;2023-11-21T03:30:23;7.80;99.90
13606;DHT22;6874;52.084;5.090;2023-11-21T03:32:49;7.70;99.90
13606;DHT22;6874;52.084;5.090;2023-11-21T03:35:14;7.70;99.90
13606;DHT22;6874;52.084;5.090;2023-11-21T03:37:40;7.70;99.90
13606;DHT22;6874;52.084;5.090;2023-11-21T03:40:07;7.70;99.90
13606;DHT22;6874;52.084;5.090;2023-11-21T03:42:38;7.70;99.90
13606;DHT22;6874;52.084;5.090;2023-11-21T03:45:04;7.70;99.90
13606;DHT22;6874;52.084;5.090;2023-11-21T03:47:30;7.70;99.90
13606;DHT22;6874;52.084;5.090;2023-11-21T03:49:55;7.70;99.90
13606;DHT22;6874;52.084;5.090;2023-11-21T03:52:21;7.70;99.90
13606;DHT22;6874;52.084;5.090;2023-11-21T03:54:46;7.70;99.90
13606;DHT22;6874;52.084;5.090;2023-11-21T03:57:12;7.70;99.90
13606;DHT22;6874;52.084;5.090;2023-11-21T03:59:41;7.70;99.90
13606;DHT22;6874;52.084;5.090;2023-11-21T04:02:07;7.70;99.90
13606;DHT22;6874;52.084;5.090;2023-11-21T04:04:33;7.70;99.90
13606;DHT22;6874;52.084;5.090;2023-11-21T04:06:59;7.80;99.90
13606;DHT22;6874;52.084;5.090;2023-11-21T04:09:25;7.80;99.90
13606;DHT22;6874;52.084;5.090;2023-11-21T04:11:51;7.80;99.90
13606;DHT22;6874;52.084;5.090;2023-11-21T04:14:17;7.80;99.90
13606;DHT22;6874;52.084;5.090;2023-11-21T04:16:42;7.80;99.90
13606;DHT22;6874;52.084;5.090;2023-11-21T04:19:08;7.80;99.90
13606;DHT22;6874;52.084;5.090;2023-11-21T04:21:38;7.80;99.90
13606;DHT22;6874;52.084;5.090;2023-11-21T04:24:04;7.80;99.90
13606;DHT22;6874;52.084;5.090;2023-11-21T04:26:30;7.80;99.90
13606;DHT22;6874;52.084;5.090;2023-11-21T04:28:56;7.80;99.90
13606;DHT22;6874;52.084;5.090;2023-11-21T04:31:21;7.80;99.90
13606;DHT22;6874;52.084;5.090;2023-11-21T04:33:47;7.80;99.90
13606;DHT22;6874;52.084;5.090;2023-11-21T04:36:12;7.80;99.90
13606;DHT22;6874;52.084;5.090;2023-11-21T04:38:38;7.80;99.90
13606;DHT22;6874;52.084;5.090;2023-11-21T04:41:04;7.80;99.90
13606;DHT22;6874;52.084;5.090;2023-11-21T04:43:29;7.80;99.90
13606;DHT22;6874;52.084;5.090;2023-11-21T04:45:55;7.80;99.90
13606;DHT22;6874;52.084;5.090;2023-11-21T04:48:21;7.90;99.90
13606;DHT22;6874;52.084;5.090;2023-11-21T04:50:46;7.90;99.90
13606;DHT22;6874;52.084;5.090;2023-11-21T04:53:12;7.80;99.90
13606;DHT22;6874;52.084;5.090;2023-11-21T04:55:40;7.80;99.90
13606;DHT22;6874;52.084;5.090;2023-11-21T04:58:06;7.90;99.90
13606;DHT22;6874;52.084;5.090;2023-11-21T05:00:31;7.90;99.90
13606;DHT22;6874;52.084;5.090;2023-11-21T05:02:57;7.90;99.90
13606;DHT22;6874;52.084;5.090;2023-11-21T05:05:23;7.90;99.90
13606;DHT22;6874;52.084;5.090;2023-11-21T05:07:49;7.90;99.90
13606;DHT22;6874;52.084;5.090;2023-11-21T05:10:15;7.90;99.90
13606;DHT22;6874;52.084;5.090;2023-11-21T05:12:41;7.90;99.90
13606;DHT22;6874;52.084;5.090;2023-11-21T05:15:08;7.90;99.90
13606;DHT22;6874;52.084;5.090;2023-11-21T05:17:39;7.90;99.90
13606;DHT22;6874;52.084;5.090;2023-11-21T05:20:09;7.90;99.90
13606;DHT22;6874;52.084;5.090;2023-11-21T05:22:36;7.90;99.90
13606;DHT22;6874;52.084;5.090;2023-11-21T05:25:02;7.90;99.90
13606;DHT22;6874;52.084;5.090;2023-11-21T05:27:29;8.00;99.90
13606;DHT22;6874;52.084;5.090;2023-11-21T05:29:56;8.00;99.90
13606;DHT22;6874;52.084;5.090;2023-11-21T05:32:22;8.00;99.90
13606;DHT22;6874;52.084;5.090;2023-11-21T05:34:49;8.00;99.90
13606;DHT22;6874;52.084;5.090;2023-11-21T05:37:14;8.00;99.90
13606;DHT22;6874;52.084;5.090;2023-11-21T05:39:40;8.00;99.90
13606;DHT22;6874;52.084;5.090;2023-11-21T05:42:05;8.00;99.90
13606;DHT22;6874;52.084;5.090;2023-11-21T05:44:31;8.00;99.90
13606;DHT22;6874;52.084;5.090;2023-11-21T05:46:57;8.00;99.90
13606;DHT22;6874;52.084;5.090;2023-11-21T05:49:24;8.00;99.90
13606;DHT22;6874;52.084;5.090;2023-11-21T05:51:53;8.00;99.90
13606;DHT22;6874;52.084;5.090;2023-11-21T05:54:19;8.00;99.90
13606;DHT22;6874;52.084;5.090;2023-11-21T05:56:45;8.00;99.90
13606;DHT22;6874;52.084;5.090;2023-11-21T05:59:10;8.10;99.90
13606;DHT22;6874;52.084;5.090;2023-11-21T06:01:36;8.00;99.90
13606;DHT22;6874;52.084;5.090;2023-11-21T06:04:04;8.10;99.90
13606;DHT22;6874;52.084;5.090;2023-11-21T06:06:29;8.10;99.90
13606;DHT22;6874;52.084;5.090;2023-11-21T06:08:56;8.10;99.90
13606;DHT22;6874;52.084;5.090;2023-11-21T06:11:22;8.10;99.90
13606;DHT22;6874;52.084;5.090;2023-11-21T06:13:47;8.10;99.90
13606;DHT22;6874;52.084;5.090;2023-11-21T06:16:13;8.10;99.90
13606;DHT22;6874;52.084;5.090;2023-11-21T06:18:41;8.20;99.90
13606;DHT22;6874;52.084;5.090;2023-11-21T06:21:09;8.20;99.90
13606;DHT22;6874;52.084;5.090;2023-11-21T06:23:38;8.20;99.90
13606;DHT22;6874;52.084;5.090;2023-11-21T06:26:04;8.20;99.90
13606;DHT22;6874;52.084;5.090;2023-11-21T06:28:30;8.20;99.90
13606;DHT22;6874;52.084;5.090;2023-11-21T06:30:56;8.30;99.90
13606;DHT22;6874;52.084;5.090;2023-11-21T06:33:23;8.20;99.90
13606;DHT22;6874;52.084;5.090;2023-11-21T06:35:52;8.30;99.90
13606;DHT22;6874;52.084;5.090;2023-11-21T06:38:18;8.30;99.90
13606;DHT22;6874;52.084;5.090;2023-11-21T06:40:45;8.30;99.90
13606;DHT22;6874;52.084;5.090;2023-11-21T06:43:11;8.30;99.90
13606;DHT22;6874;52.084;5.090;2023-11-21T06:45:36;8.30;99.90
13606;DHT22;6874;52.084;5.090;2023-11-21T06:48:02;8.30;99.90
13606;DHT22;6874;52.084;5.090;2023-11-21T06:50:28;8.30;99.90
13606;DHT22;6874;52.084;5.090;2023-11-21T06:52:53;8.30;99.90
13606;DHT22;6874;52.084;5.090;2023-11-21T06:55:19;8.30;99.90
13606;DHT22;6874;52.084;5.090;2023-11-21T06:57:45;8.30;99.90
13606;DHT22;6874;52.084;5.090;2023-11-21T07:00:12;8.30;99.90
13606;DHT22;6874;52.084;5.090;2023-11-21T07:02:38;8.30;99.90
13606;DHT22;6874;52.084;5.090;2023-11-21T07:05:04;8.30;99.90
13606;DHT22;6874;52.084;5.090;2023-11-21T07:07:31;8.30;99.90
13606;DHT22;6874;52.084;5.090;2023-11-21T07:09:58;8.40;99.90
13606;DHT22;6874;52.084;5.090;2023-11-21T07:12:29;8.40;99.90
13606;DHT22;6874;52.084;5.090;2023-11-21T07:14:55;8.40;99.90
13606;DHT22;6874;52.084;5.090;2023-11-21T07:17:21;8.40;99.90
13606;DHT22;6874;52.084;5.090;2023-11-21T07:19:48;8.40;99.90
13606;DHT22;6874;52.084;5.090;2023-11-21T07:22:15;8.40;99.90
13606;DHT22;6874;52.084;5.090;2023-11-21T07:24:48;8.40;99.90
13606;DHT22;6874;52.084;5.090;2023-11-21T07:27:14;8.40;99.90
13606;DHT22;6874;52.084;5.090;2023-11-21T07:29:40;8.40;99.90
13606;DHT22;6874;52.084;5.090;2023-11-21T07:32:06;8.50;99.90
13606;DHT22;6874;52.084;5.090;2023-11-21T07:34:31;8.50;99.90
13606;DHT22;6874;52.084;5.090;2023-11-21T07:36:57;8.50;99.90
13606;DHT22;6874;52.084;5.090;2023-11-21T07:39:23;8.60;99.90
13606;DHT22;6874;52.084;5.090;2023-11-21T07:41:51;8.60;99.90
13606;DHT22;6874;52.084;5.090;2023-11-21T07:44:17;8.60;99.90
13606;DHT22;6874;52.084;5.090;2023-11-21T07:46:43;8.60;99.90
13606;DHT22;6874;52.084;5.090;2023-11-21T07:49:08;8.60;99.90
13606;DHT22;6874;52.084;5.090;2023-11-21T07:51:34;8.60;99.90
13606;DHT22;6874;52.084;5.090;2023-11-21T07:54:00;8.70;99.90
13606;DHT22;6874;52.084;5.090;2023-11-21T07:56:26;8.70;99.90
13606;DHT22;6874;52.084;5.090;2023-11-21T07:58:51;8.70;99.90
13606;DHT22;6874;52.084;5.090;2023-11-21T08:01:17;8.70;99.90
13606;DHT22;6874;52.084;5.090;2023-11-21T08:03:43;8.70;99.90
13606;DHT22;6874;52.084;5.090;2023-11-21T08:06:09;8.80;99.90
13606;DHT22;6874;52.084;5.090;2023-11-21T08:08:35;8.80;99.90
13606;DHT22;6874;52.084;5.090;2023-11-21T08:11:00;8.80;99.90
13606;DHT22;6874;52.084;5.090;2023-11-21T08:13:27;8.80;99.90
13606;DHT22;6874;52.084;5.090;2023-11-21T08:15:57;8.90;99.90
13606;DHT22;6874;52.084;5.090;2023-11-21T08:18:27;8.90;99.90
13606;DHT22;6874;52.084;5.090;2023-11-21T08:20:54;8.90;99.90
13606;DHT22;6874;52.084;5.090;2023-11-21T08:23:20;8.90;99.90
13606;DHT22;6874;52.084;5.090;2023-11-21T08:25:46;9.00;99.90
13606;DHT22;6874;52.084;5.090;2023-11-21T08:28:12;9.00;99.90
13606;DHT22;6874;52.084;5.090;2023-11-21T08:30:40;9.00;99.90
13606;DHT22;6874;52.084;5.090;2023-11-21T08:33:07;9.00;99.90
13606;DHT22;6874;52.084;5.090;2023-11-21T08:35:33;9.00;99.90
13606;DHT22;6874;52.084;5.090;2023-11-21T08:37:59;9.10;99.90
13606;DHT22;6874;52.084;5.090;2023-11-21T08:40:25;9.00;99.90
13606;DHT22;6874;52.084;5.090;2023-11-21T08:42:51;9.10;99.90
13606;DHT22;6874;52.084;5.090;2023-11-21T08:45:18;9.10;99.90
13606;DHT22;6874;52.084;5.090;2023-11-21T08:47:44;9.10;99.90
13606;DHT22;6874;52.084;5.090;2023-11-21T08:50:10;9.20;99.90
13606;DHT22;6874;52.084;5.090;2023-11-21T08:52:38;9.10;99.90
13606;DHT22;6874;52.084;5.090;2023-11-21T08:55:05;9.20;99.90
13606;DHT22;6874;52.084;5.090;2023-11-21T08:57:34;9.20;99.90
13606;DHT22;6874;52.084;5.090;2023-11-21T09:00:00;9.20;99.90
13606;DHT22;6874;52.084;5.090;2023-11-21T09:02:26;9.30;99.90
13606;DHT22;6874;52.084;5.090;2023-11-21T09:04:52;9.30;99.90
13606;DHT22;6874;52.084;5.090;2023-11-21T09:07:21;9.30;99.90
13606;DHT22;6874;52.084;5.090;2023-11-21T09:09:47;9.40;99.90
13606;DHT22;6874;52.084;5.090;2023-11-21T09:12:13;9.40;99.90
13606;DHT22;6874;52.084;5.090;2023-11-21T09:14:39;9.40;99.90
13606;DHT22;6874;52.084;5.090;2023-11-21T09:17:06;9.40;99.90
13606;DHT22;6874;52.084;5.090;2023-11-21T09:19:39;9.40;99.90
13606;DHT22;6874;52.084;5.090;2023-11-21T09:22:06;9.40;99.90
13606;DHT22;6874;52.084;5.090;2023-11-21T09:24:34;9.50;99.90
13606;DHT22;6874;52.084;5.090;2023-11-21T09:27:02;9.50;99.90
13606;DHT22;6874;52.084;5.090;2023-11-21T09:29:28;9.50;99.90
13606;DHT22;6874;52.084;5.090;2023-11-21T09:32:00;9.50;99.90
13606;DHT22;6874;52.084;5.090;2023-11-21T09:34:27;9.50;99.90
13606;DHT22;6874;52.084;5.090;2023-11-21T09:36:56;9.50;99.90
13606;DHT22;6874;52.084;5.090;2023-11-21T09:39:21;9.50;99.90
13606;DHT22;6874;52.084;5.090;2023-11-21T09:45:00;9.50;99.90
13606;DHT22;6874;52.084;5.090;2023-11-21T09:47:26;9.50;99.90
13606;DHT22;6874;52.084;5.090;2023-11-21T09:50:01;9.50;99.90
13606;DHT22;6874;52.084;5.090;2023-11-21T09:52:30;9.50;99.90
13606;DHT22;6874;52.084;5.090;2023-11-21T09:54:58;9.60;99.90
13606;DHT22;6874;52.084;5.090;2023-11-21T09:57:26;9.60;99.90
13606;DHT22;6874;52.084;5.090;2023-11-21T09:59:57;9.60;99.90
13606;DHT22;6874;52.084;5.090;2023-11-21T10:02:27;9.60;99.90
13606;DHT22;6874;52.084;5.090;2023-11-21T10:04:58;9.80;99.90
13606;DHT22;6874;52.084;5.090;2023-11-21T10:07:28;9.60;99.90
13606;DHT22;6874;52.084;5.090;2023-11-21T10:10:00;9.60;99.90
13606;DHT22;6874;52.084;5.090;2023-11-21T10:12:27;9.60;99.90
13606;DHT22;6874;52.084;5.090;2023-11-21T10:14:58;9.70;99.90
13606;DHT22;6874;52.084;5.090;2023-11-21T10:17:27;9.70;99.90
13606;DHT22;6874;52.084;5.090;2023-11-21T10:19:59;9.70;99.90
13606;DHT22;6874;52.084;5.090;2023-11-21T10:22:25;9.70;99.90
13606;DHT22;6874;52.084;5.090;2023-11-21T10:24:54;9.70;99.90
13606;DHT22;6874;52.084;5.090;2023-11-21T10:27:20;9.70;99.90
13606;DHT22;6874;52.084;5.090;2023-11-21T10:29:51;9.70;99.90
13606;DHT22;6874;52.084;5.090;2023-11-21T10:32:29;9.70;99.90
13606;DHT22;6874;52.084;5.090;2023-11-21T10:34:59;9.70;99.90
13606;DHT22;6874;52.084;5.090;2023-11-21T10:37:26;9.80;99.90
13606;DHT22;6874;52.084;5.090;2023-11-21T10:39:58;9.70;99.90
13606;DHT22;6874;52.084;5.090;2023-11-21T10:42:25;9.70;99.90
13606;DHT22;6874;52.084;5.090;2023-11-21T10:44:52;9.80;99.90
13606;DHT22;6874;52.084;5.090;2023-11-21T10:47:19;9.80;99.90
13606;DHT22;6874;52.084;5.090;2023-11-21T10:49:48;9.80;99.90
13606;DHT22;6874;52.084;5.090;2023-11-21T10:52:13;9.90;99.90
13606;DHT22;6874;52.084;5.090;2023-11-21T10:54:43;9.80;99.90
13606;DHT22;6874;52.084;5.090;2023-11-21T10:57:10;9.80;99.90
13606;DHT22;6874;52.084;5.090;2023-11-21T10:59:36;9.80;99.90
13606;DHT22;6874;52.084;5.090;2023-11-21T11:02:13;9.80;99.90
13606;DHT22;6874;52.084;5.090;2023-11-21T11:04:47;9.80;99.90
13606;DHT22;6874;52.084;5.090;2023-11-21T11:07:14;9.80;99.90
13606;DHT22;6874;52.084;5.090;2023-11-21T11:09:41;9.80;99.90
13606;DHT22;6874;52.084;5.090;2023-11-21T11:12:08;9.80;99.90
13606;DHT22;6874;52.084;5.090;2023-11-21T11:14:35;9.80;99.90
13606;DHT22;6874;52.084;5.090;2023-11-21T11:17:02;9.80;99.90
13606;DHT22;6874;52.084;5.090;2023-11-21T11:19:29;9.80;99.90
13606;DHT22;6874;52.084;5.090;2023-11-21T11:22:19;9.80;99.90
13606;DHT22;6874;52.084;5.090;2023-11-21T11:28:07;9.80;99.90
13606;DHT22;6874;52.084;5.090;2023-11-21T11:31:14;9.90;99.90
13606;DHT22;6874;52.084;5.090;2023-11-21T11:33:57;9.90;99.90
13606;DHT22;6874;52.084;5.090;2023-11-21T11:36:39;9.80;99.90
13606;DHT22;6874;52.084;5.090;2023-11-21T11:39:26;9.80;99.90
13606;DHT22;6874;52.084;5.090;2023-11-21T11:41:52;9.80;99.90
13606;DHT22;6874;52.084;5.090;2023-11-21T11:47:31;9.90;99.90
13606;DHT22;6874;52.084;5.090;2023-11-21T11:50:08;9.90;99.90
13606;DHT22;6874;52.084;5.090;2023-11-21T11:52:49;9.90;99.90
13606;DHT22;6874;52.084;5.090;2023-11-21T11:55:21;9.80;99.90
13606;DHT22;6874;52.084;5.090;2023-11-21T11:57:58;9.90;99.90
13606;DHT22;6874;52.084;5.090;2023-11-21T12:02:56;9.90;99.90
13606;DHT22;6874;52.084;5.090;2023-11-21T12:05:26;9.90;99.90
13606;DHT22;6874;52.084;5.090;2023-11-21T12:08:02;9.90;99.90
13606;DHT22;6874;52.084;5.090;2023-11-21T12:10:33;9.90;99.90
13606;DHT22;6874;52.084;5.090;2023-11-21T12:13:05;9.90;99.90
13606;DHT22;6874;52.084;5.090;2023-11-21T12:15:33;9.90;99.90
13606;DHT22;6874;52.084;5.090;2023-11-21T12:17:59;9.90;99.90
13606;DHT22;6874;52.084;5.090;2023-11-21T12:20:25;9.90;99.90
13606;DHT22;6874;52.084;5.090;2023-11-21T12:22:53;9.90;99.90
13606;DHT22;6874;52.084;5.090;2023-11-21T12:25:23;10.00;99.90
13606;DHT22;6874;52.084;5.090;2023-11-21T12:27:52;10.10;99.90
13606;DHT22;6874;52.084;5.090;2023-11-21T12:30:20;9.90;99.90
13606;DHT22;6874;52.084;5.090;2023-11-21T12:32:52;10.00;99.90
13606;DHT22;6874;52.084;5.090;2023-11-21T12:35:19;10.00;99.90
13606;DHT22;6874;52.084;5.090;2023-11-21T12:37:45;10.00;99.90
13606;DHT22;6874;52.084;5.090;2023-11-21T12:40:12;10.00;99.90
13606;DHT22;6874;52.084;5.090;2023-11-21T12:42:45;10.10;99.90
13606;DHT22;6874;52.084;5.090;2023-11-21T12:48:06;10.00;99.90
13606;DHT22;6874;52.084;5.090;2023-11-21T12:50:38;10.00;99.90
13606;DHT22;6874;52.084;5.090;2023-11-21T12:53:09;10.00;99.90
13606;DHT22;6874;52.084;5.090;2023-11-21T12:55:35;10.00;99.90
13606;DHT22;6874;52.084;5.090;2023-11-21T12:58:08;10.00;99.90
13606;DHT22;6874;52.084;5.090;2023-11-21T13:00:46;10.00;99.90
13606;DHT22;6874;52.084;5.090;2023-11-21T13:03:14;10.00;99.90
13606;DHT22;6874;52.084;5.090;2023-11-21T13:05:46;10.00;99.90
13606;DHT22;6874;52.084;5.090;2023-11-21T13:08:16;10.10;99.90
13606;DHT22;6874;52.084;5.090;2023-11-21T13:10:45;10.10;99.90
13606;DHT22;6874;52.084;5.090;2023-11-21T13:13:14;10.10;99.90
13606;DHT22;6874;52.084;5.090;2023-11-21T13:15:53;10.10;99.90
13606;DHT22;6874;52.084;5.090;2023-11-21T13:18:21;10.10;99.90
13606;DHT22;6874;52.084;5.090;2023-11-21T13:20:49;10.10;99.90
13606;DHT22;6874;52.084;5.090;2023-11-21T13:23:15;10.10;99.90
13606;DHT22;6874;52.084;5.090;2023-11-21T13:25:46;10.10;99.90
13606;DHT22;6874;52.084;5.090;2023-11-21T13:28:13;10.10;99.90
13606;DHT22;6874;52.084;5.090;2023-11-21T13:30:41;10.20;99.90
13606;DHT22;6874;52.084;5.090;2023-11-21T13:33:07;10.20;99.90
13606;DHT22;6874;52.084;5.090;2023-11-21T13:35:35;10.20;99.90
13606;DHT22;6874;52.084;5.090;2023-11-21T13:38:10;10.20;99.90
13606;DHT22;6874;52.084;5.090;2023-11-21T13:40:37;10.20;99.90
13606;DHT22;6874;52.084;5.090;2023-11-21T13:43:13;10.20;99.90
13606;DHT22;6874;52.084;5.090;2023-11-21T13:45:43;10.20;99.90
13606;DHT22;6874;52.084;5.090;2023-11-21T13:48:10;10.20;99.90
13606;DHT22;6874;52.084;5.090;2023-11-21T13:50:36;10.20;99.90
13606;DHT22;6874;52.084;5.090;2023-11-21T13:53:03;10.20;99.90
13606;DHT22;6874;52.084;5.090;2023-11-21T13:55:44;10.20;99.90
13606;DHT22;6874;52.084;5.090;2023-11-21T13:58:11;10.20;99.90
13606;DHT22;6874;52.084;5.090;2023-11-21T14:00:42;10.20;99.90
13606;DHT22;6874;52.084;5.090;2023-11-21T14:03:12;10.30;99.90
13606;DHT22;6874;52.084;5.090;2023-11-21T14:05:48;10.10;99.90
13606;DHT22;6874;52.084;5.090;2023-11-21T14:08:20;10.10;99.90
13606;DHT22;6874;52.084;5.090;2023-11-21T14:10:49;10.10;99.90
13606;DHT22;6874;52.084;5.090;2023-11-21T14:13:23;10.10;99.90
13606;DHT22;6874;52.084;5.090;2023-11-21T14:15:50;10.10;99.90
13606;DHT22;6874;52.084;5.090;2023-11-21T14:18:23;10.10;99.90
13606;DHT22;6874;52.084;5.090;2023-11-21T14:20:56;10.10;99.90
13606;DHT22;6874;52.084;5.090;2023-11-21T14:23:21;10.10;99.90
13606;DHT22;6874;52.084;5.090;2023-11-21T14:25:48;10.10;99.90
13606;DHT22;6874;52.084;5.090;2023-11-21T14:28:15;10.10;99.90
13606;DHT22;6874;52.084;5.090;2023-11-21T14:30:41;10.10;99.90
13606;DHT22;6874;52.084;5.090;2023-11-21T14:33:10;10.10;99.90
13606;DHT22;6874;52.084;5.090;2023-11-21T14:35:36;10.00;99.90
13606;DHT22;6874;52.084;5.090;2023-11-21T14:38:02;10.10;99.90
13606;DHT22;6874;52.084;5.090;2023-11-21T14:40:33;10.10;99.90
13606;DHT22;6874;52.084;5.090;2023-11-21T14:43:01;10.00;99.90
13606;DHT22;6874;52.084;5.090;2023-11-21T14:45:26;10.00;99.90
13606;DHT22;6874;52.084;5.090;2023-11-21T14:47:54;10.00;99.90
13606;DHT22;6874;52.084;5.090;2023-11-21T14:50:40;10.00;99.90
13606;DHT22;6874;52.084;5.090;2023-11-21T14:53:17;10.00;99.90
13606;DHT22;6874;52.084;5.090;2023-11-21T14:56:00;9.90;99.90
13606;DHT22;6874;52.084;5.090;2023-11-21T14:58:29;9.90;99.90
13606;DHT22;6874;52.084;5.090;2023-11-21T15:00:58;10.00;99.90
13606;DHT22;6874;52.084;5.090;2023-11-21T15:03:26;9.90;99.90
13606;DHT22;6874;52.084;5.090;2023-11-21T15:06:09;9.90;99.90
13606;DHT22;6874;52.084;5.090;2023-11-21T15:08:58;9.80;99.90
13606;DHT22;6874;52.084;5.090;2023-11-21T15:11:34;9.80;99.90
13606;DHT22;6874;52.084;5.090;2023-11-21T15:13:59;9.90;99.90
13606;DHT22;6874;52.084;5.090;2023-11-21T15:16:32;9.80;99.90
13606;DHT22;6874;52.084;5.090;2023-11-21T15:18:58;9.80;99.90
13606;DHT22;6874;52.084;5.090;2023-11-21T15:21:24;9.80;99.90
13606;DHT22;6874;52.084;5.090;2023-11-21T15:23:49;9.80;99.90
13606;DHT22;6874;52.084;5.090;2023-11-21T15:26:16;9.80;99.90
13606;DHT22;6874;52.084;5.090;2023-11-21T15:28:41;9.70;99.90
13606;DHT22;6874;52.084;5.090;2023-11-21T15:31:07;9.70;99.90
13606;DHT22;6874;52.084;5.090;2023-11-21T15:33:34;9.70;99.90
13606;DHT22;6874;52.084;5.090;2023-11-21T15:36:01;9.70;99.90
13606;DHT22;6874;52.084;5.090;2023-11-21T15:38:27;9.70;99.90
13606;DHT22;6874;52.084;5.090;2023-11-21T15:40:53;9.70;99.90
13606;DHT22;6874;52.084;5.090;2023-11-21T15:43:20;9.60;99.90
13606;DHT22;6874;52.084;5.090;2023-11-21T15:45:45;9.60;99.90
13606;DHT22;6874;52.084;5.090;2023-11-21T15:48:11;9.70;99.90
13606;DHT22;6874;52.084;5.090;2023-11-21T15:50:36;9.60;99.90
13606;DHT22;6874;52.084;5.090;2023-11-21T15:53:02;9.60;99.90
13606;DHT22;6874;52.084;5.090;2023-11-21T15:55:30;9.60;99.90
13606;DHT22;6874;52.084;5.090;2023-11-21T15:57:57;9.60;99.90
13606;DHT22;6874;52.084;5.090;2023-11-21T16:00:23;9.50;99.90
13606;DHT22;6874;52.084;5.090;2023-11-21T16:02:49;9.50;99.90
13606;DHT22;6874;52.084;5.090;2023-11-21T16:05:15;9.50;99.90
13606;DHT22;6874;52.084;5.090;2023-11-21T16:07:43;9.50;99.90
13606;DHT22;6874;52.084;5.090;2023-11-21T16:10:09;9.50;99.90
13606;DHT22;6874;52.084;5.090;2023-11-21T16:12:41;9.50;99.90
13606;DHT22;6874;52.084;5.090;2023-11-21T16:15:08;9.50;99.90
13606;DHT22;6874;52.084;5.090;2023-11-21T16:17:37;9.50;99.90